Time;durP1;ratioP1;P1;durP2;ratioP2;P2;SDS_P1;SDS_P2;PMS_P1;PMS_P2;Temp;Humidity;BMP_temperature;BMP_pressure;BME280_temperature;BME280_humidity;BME280_pressure;Samples;Min_cycle;Max_cycle;Signal;HPM_P1;HPM_P2
2021/12/15 00:02:27;;;;;;;124.80;43.65;;;10.30;99.90;;;;;;4970297;28;20051;-86
2021/12/15 00:04:53;;;;;;;135.40;46.05;;;10.30;99.90;;;;;;4939370;28;20050;-85
2021/12/15 00:07:20;;;;;;;129.73;44.13;;;10.30;99.90;;;;;;4954670;28;20046;-86
2021/12/15 00:09:46;;;;;;;128.85;44.40;;;10.30;99.90;;;;;;4938597;28;20109;-85
2021/12/15 00:12:13;;;;;;;131.02;43.63;;;10.30;99.90;;;;;;4970948;28;20127;-86
2021/12/15 00:14:39;;;;;;;113.28;41.03;;;10.30;99.90;;;;;;4954964;28;20073;-86
2021/12/15 00:17:05;;;;;;;132.02;45.47;;;10.30;99.90;;;;;;4959071;28;20046;-86
2021/12/15 00:19:31;;;;;;;131.73;45.15;;;10.30;99.90;;;;;;4942594;28;20075;-85
2021/12/15 00:21:57;;;;;;;115.78;41.90;;;10.30;99.90;;;;;;4980419;28;20042;-84
2021/12/15 00:24:23;;;;;;;116.65;44.15;;;10.40;99.90;;;;;;4964347;28;20399;-84
2021/12/15 00:26:48;;;;;;;124.35;45.30;;;10.30;99.90;;;;;;4958227;28;20047;-86
2021/12/15 00:29:14;;;;;;;109.50;42.90;;;10.20;99.90;;;;;;4974593;28;20054;-86
2021/12/15 00:31:42;;;;;;;99.93;40.08;;;10.30;99.90;;;;;;4957828;28;20057;-85
2021/12/15 00:34:08;;;;;;;114.95;44.22;;;10.30;99.90;;;;;;4958719;28;20050;-85
2021/12/15 00:36:34;;;;;;;115.70;43.67;;;10.30;99.90;;;;;;4973505;28;20562;-86
2021/12/15 00:39:00;;;;;;;112.28;42.25;;;10.40;99.90;;;;;;4974423;28;20491;-86
2021/12/15 00:41:25;;;;;;;113.95;42.00;;;10.30;99.90;;;;;;4958080;28;20079;-84
2021/12/15 00:43:51;;;;;;;106.03;42.85;;;10.40;99.90;;;;;;4974355;28;20586;-85
2021/12/15 00:46:18;;;;;;;100.78;42.55;;;10.40;99.90;;;;;;4974274;28;20054;-85
2021/12/15 00:48:45;;;;;;;103.18;40.95;;;10.30;99.90;;;;;;4957694;28;20054;-85
2021/12/15 00:51:10;;;;;;;118.65;44.17;;;10.40;99.90;;;;;;4958125;28;20105;-85
2021/12/15 00:53:36;;;;;;;93.10;40.55;;;10.30;99.90;;;;;;4957847;28;20050;-86
2021/12/15 00:56:02;;;;;;;102.22;42.10;;;10.30;99.90;;;;;;4974426;28;20137;-85
2021/12/15 00:58:28;;;;;;;106.00;40.17;;;10.30;99.90;;;;;;4942024;28;20097;-85
2021/12/15 01:00:56;;;;;;;101.68;42.40;;;10.30;99.90;;;;;;4973842;28;20495;-86
2021/12/15 01:03:22;;;;;;;117.70;41.53;;;10.30;99.90;;;;;;4958044;28;20064;-87
2021/12/15 01:05:50;;;;;;;97.45;39.42;;;10.40;99.90;;;;;;4957333;28;20146;-86
2021/12/15 01:08:21;;;;;;;106.00;42.05;;;10.40;99.90;;;;;;4957927;28;20054;-86
2021/12/15 01:11:13;;;;;;;94.85;37.28;;;10.30;99.90;;;;;;4957771;28;20136;-86
2021/12/15 01:22:01;;;;;;;108.13;42.53;;;10.30;99.90;;;;;;4960228;28;20050;-85
2021/12/15 01:24:26;;;;;;;97.80;38.83;;;10.40;99.90;;;;;;4973678;28;20507;-85
2021/12/15 01:26:52;;;;;;;103.28;39.30;;;10.30;99.90;;;;;;4955551;28;20555;-86
2021/12/15 01:29:18;;;;;;;101.82;41.67;;;10.30;99.90;;;;;;4973478;28;20141;-86
2021/12/15 01:31:43;;;;;;;102.07;40.42;;;10.30;99.90;;;;;;4956881;28;20096;-85
2021/12/15 01:34:09;;;;;;;106.45;41.40;;;10.40;99.90;;;;;;4973659;28;20098;-84
2021/12/15 01:36:35;;;;;;;108.82;41.92;;;10.40;99.90;;;;;;4957216;28;20074;-86
2021/12/15 01:39:01;;;;;;;108.57;40.28;;;10.30;99.90;;;;;;4959538;28;20056;-86
2021/12/15 01:41:27;;;;;;;97.72;38.13;;;10.30;99.90;;;;;;4960266;28;20450;-86
2021/12/15 01:49:22;;;;;;;106.40;40.50;;;10.40;99.90;;;;;;4965792;28;20054;-86
2021/12/15 01:51:48;;;;;;;114.78;42.72;;;10.40;99.90;;;;;;4976075;28;20129;-86
2021/12/15 01:54:14;;;;;;;101.13;39.72;;;10.30;99.90;;;;;;4956938;28;20158;-85
2021/12/15 01:56:40;;;;;;;113.72;41.95;;;10.40;99.90;;;;;;4972593;28;20094;-87
2021/12/15 01:59:06;;;;;;;94.25;37.90;;;10.30;99.90;;;;;;4972957;28;20105;-86
2021/12/15 02:01:31;;;;;;;103.47;39.70;;;10.50;99.90;;;;;;4957090;28;20051;-87
2021/12/15 02:03:57;;;;;;;102.55;39.53;;;10.50;99.90;;;;;;4956339;28;20062;-87
2021/12/15 02:06:23;;;;;;;88.05;37.22;;;10.40;99.90;;;;;;4972668;28;20057;-87
2021/12/15 02:08:49;;;;;;;106.65;41.80;;;10.50;99.90;;;;;;4956160;28;20050;-86
2021/12/15 02:11:15;;;;;;;98.07;37.63;;;10.50;99.90;;;;;;4940683;28;20512;-87
2021/12/15 02:13:41;;;;;;;94.57;37.47;;;10.50;99.90;;;;;;4956211;28;20054;-86
2021/12/15 02:16:06;;;;;;;91.93;38.10;;;10.40;99.90;;;;;;4956530;28;20535;-86
2021/12/15 02:18:34;;;;;;;101.95;37.95;;;10.40;99.90;;;;;;4956705;28;20054;-86
2021/12/15 02:21:13;;;;;;;105.82;41.28;;;10.40;99.90;;;;;;4940298;28;20054;-86
2021/12/15 02:23:44;;;;;;;102.80;38.47;;;10.40;99.90;;;;;;4972526;28;20046;-85
2021/12/15 02:26:22;;;;;;;101.80;39.33;;;10.50;99.90;;;;;;4972402;28;20055;-86
2021/12/15 02:28:50;;;;;;;106.32;39.10;;;10.60;99.90;;;;;;4955541;28;20050;-86
2021/12/15 02:31:34;;;;;;;111.63;40.45;;;10.50;99.90;;;;;;4956250;28;20105;-85
2021/12/15 02:39:11;;;;;;;106.72;39.80;;;10.40;99.90;;;;;;4958255;28;20058;-86
2021/12/15 02:41:40;;;;;;;108.30;43.65;;;10.40;99.90;;;;;;4956013;28;20050;-86
2021/12/15 02:44:11;;;;;;;98.15;35.85;;;10.40;99.90;;;;;;4939727;28;20054;-85
2021/12/15 02:46:36;;;;;;;103.43;42.20;;;10.50;99.90;;;;;;4956414;28;20051;-86
2021/12/15 02:49:03;;;;;;;116.03;43.25;;;10.40;99.90;;;;;;4955357;28;20610;-86
2021/12/15 02:51:29;;;;;;;108.30;41.50;;;10.40;99.90;;;;;;4972124;28;20087;-87
2021/12/15 02:53:55;;;;;;;120.10;42.78;;;10.40;99.90;;;;;;4971449;28;20143;-87
2021/12/15 02:56:21;;;;;;;120.45;43.35;;;10.40;99.90;;;;;;4956049;28;20069;-86
2021/12/15 02:58:52;;;;;;;109.63;41.50;;;10.40;99.90;;;;;;4971306;28;20047;-86
2021/12/15 03:01:28;;;;;;;114.97;42.60;;;10.50;99.90;;;;;;4972411;28;20047;-85
2021/12/15 03:04:13;;;;;;;106.55;42.58;;;10.50;99.90;;;;;;4962234;28;20482;-85
2021/12/15 03:06:55;;;;;;;111.35;42.25;;;10.50;99.90;;;;;;4978394;28;20442;-86
2021/12/15 03:17:01;;;;;;;108.18;38.85;;;10.40;99.90;;;;;;4971026;28;20077;-86
2021/12/15 03:19:27;;;;;;;104.75;40.60;;;10.40;99.90;;;;;;4971489;28;20051;-86
2021/12/15 03:21:53;;;;;;;101.50;41.30;;;10.50;99.90;;;;;;4954937;28;20514;-86
2021/12/15 03:24:20;;;;;;;98.35;38.53;;;10.40;99.90;;;;;;4955205;28;20074;-86
2021/12/15 03:26:54;;;;;;;120.43;42.03;;;10.40;99.90;;;;;;4955031;28;20049;-85
2021/12/15 03:37:25;;;;;;;104.20;39.55;;;10.50;99.90;;;;;;4956045;28;20484;-87
2021/12/15 03:39:57;;;;;;;97.57;36.83;;;10.50;99.90;;;;;;4954794;28;20050;-86
2021/12/15 03:42:36;;;;;;;97.60;38.47;;;10.50;99.90;;;;;;4954845;28;20059;-86
2021/12/15 03:45:04;;;;;;;106.22;41.67;;;10.50;99.90;;;;;;4954584;28;20088;-86
2021/12/15 03:47:33;;;;;;;95.45;36.65;;;10.40;99.90;;;;;;4955044;28;20053;-87
2021/12/15 03:49:59;;;;;;;100.40;40.85;;;10.50;99.90;;;;;;4954186;28;20102;-86
2021/12/15 03:52:25;;;;;;;110.78;40.38;;;10.50;99.90;;;;;;4955204;28;20570;-86
2021/12/15 03:54:50;;;;;;;104.78;39.72;;;10.40;99.90;;;;;;4954282;28;20415;-85
2021/12/15 03:57:16;;;;;;;112.30;42.63;;;10.40;99.90;;;;;;4970772;28;20050;-86
2021/12/15 03:59:43;;;;;;;105.95;41.05;;;10.50;99.90;;;;;;4971349;28;20129;-86
2021/12/15 04:02:12;;;;;;;111.50;42.15;;;10.40;99.90;;;;;;4954642;28;20058;-87
2021/12/15 04:04:38;;;;;;;104.40;40.55;;;10.40;99.90;;;;;;4955284;28;20507;-85
2021/12/15 04:07:04;;;;;;;107.55;40.72;;;10.40;99.90;;;;;;4970238;28;20137;-85
2021/12/15 04:09:29;;;;;;;97.68;39.17;;;10.40;99.90;;;;;;4971939;28;20087;-87
2021/12/15 04:11:55;;;;;;;99.65;40.35;;;10.50;99.90;;;;;;4970207;28;20046;-86
2021/12/15 04:14:23;;;;;;;99.30;39.70;;;10.50;99.90;;;;;;4970913;28;20047;-87
2021/12/15 04:17:07;;;;;;;111.15;43.25;;;10.50;99.90;;;;;;4970844;28;20091;-86
2021/12/15 04:19:35;;;;;;;114.35;43.25;;;10.50;99.90;;;;;;4957309;28;20114;-86
2021/12/15 04:22:00;;;;;;;102.15;38.63;;;10.50;99.90;;;;;;4970043;28;20057;-88
2021/12/15 04:24:27;;;;;;;103.03;42.17;;;10.40;99.90;;;;;;4938932;28;20051;-86
2021/12/15 04:26:53;;;;;;;107.55;42.05;;;10.50;99.90;;;;;;4938448;28;20058;-85
2021/12/15 04:29:19;;;;;;;105.97;41.65;;;10.40;99.90;;;;;;4954615;28;20055;-86
2021/12/15 04:32:06;;;;;;;97.95;37.65;;;10.50;99.90;;;;;;4970719;28;20050;-86
2021/12/15 04:34:31;;;;;;;109.57;43.15;;;10.40;99.90;;;;;;4970603;28;20058;-86
2021/12/15 04:36:57;;;;;;;108.85;43.35;;;10.40;99.90;;;;;;4969912;28;20051;-85
2021/12/15 04:39:24;;;;;;;108.30;42.50;;;10.40;99.90;;;;;;4970645;28;20062;-86
2021/12/15 04:41:52;;;;;;;108.32;42.60;;;10.40;99.90;;;;;;4970566;28;20152;-85
2021/12/15 04:44:20;;;;;;;108.22;44.63;;;10.40;99.90;;;;;;4970002;28;20050;-86
2021/12/15 04:46:58;;;;;;;103.93;43.17;;;10.50;99.90;;;;;;4954447;28;20157;-86
2021/12/15 04:49:24;;;;;;;105.18;44.72;;;10.40;99.90;;;;;;4955473;28;20058;-86
2021/12/15 04:51:50;;;;;;;113.25;44.53;;;10.40;99.90;;;;;;4938458;28;20058;-86
2021/12/15 04:54:16;;;;;;;103.90;42.45;;;10.50;99.90;;;;;;4969657;28;20058;-86
2021/12/15 04:56:42;;;;;;;102.18;44.03;;;10.40;99.90;;;;;;4970686;28;20507;-86
2021/12/15 04:59:08;;;;;;;111.85;45.65;;;10.40;99.90;;;;;;4954180;28;20074;-86
2021/12/15 05:01:33;;;;;;;107.40;44.38;;;10.30;99.90;;;;;;4940575;28;20074;-86
2021/12/15 05:03:59;;;;;;;111.50;44.45;;;10.30;99.90;;;;;;4957456;28;20074;-85
2021/12/15 05:06:25;;;;;;;109.60;45.00;;;10.30;99.90;;;;;;4957600;28;20050;-86
2021/12/15 05:08:50;;;;;;;113.03;44.28;;;10.30;99.90;;;;;;4957938;28;20130;-86
2021/12/15 05:11:16;;;;;;;109.72;44.55;;;10.50;99.90;;;;;;4957142;28;20127;-87
2021/12/15 05:13:42;;;;;;;108.18;45.35;;;10.50;99.90;;;;;;4957608;28;20050;-86
2021/12/15 05:16:07;;;;;;;109.10;44.78;;;10.40;99.90;;;;;;4957174;28;20050;-86
2021/12/15 05:18:33;;;;;;;103.38;45.40;;;10.40;99.90;;;;;;4973474;28;20094;-86
2021/12/15 05:20:59;;;;;;;114.82;44.72;;;10.40;99.90;;;;;;4957471;28;20058;-85
2021/12/15 05:23:31;;;;;;;103.68;44.53;;;10.40;99.90;;;;;;4957311;28;20051;-86
2021/12/15 05:25:57;;;;;;;106.85;46.28;;;10.40;99.90;;;;;;4942268;28;20050;-85
2021/12/15 05:28:23;;;;;;;110.72;45.58;;;10.30;99.90;;;;;;4956563;28;20086;-85
2021/12/15 05:30:48;;;;;;;106.45;43.72;;;10.40;99.90;;;;;;4957314;28;20093;-86
2021/12/15 05:33:14;;;;;;;107.45;45.22;;;10.30;99.90;;;;;;4956391;28;20051;-86
2021/12/15 05:35:40;;;;;;;113.18;47.08;;;10.40;99.90;;;;;;4973343;28;20055;-86
2021/12/15 05:38:06;;;;;;;118.22;45.22;;;10.40;99.90;;;;;;4956651;28;20058;-86
2021/12/15 05:40:32;;;;;;;102.28;43.53;;;10.50;99.90;;;;;;4941535;28;20395;-86
2021/12/15 05:42:58;;;;;;;103.20;44.53;;;10.50;99.90;;;;;;4957583;28;20051;-87
2021/12/15 05:45:27;;;;;;;111.57;47.67;;;10.40;99.90;;;;;;4956782;28;20617;-86
2021/12/15 05:47:54;;;;;;;108.38;46.70;;;10.30;99.90;;;;;;4956881;28;20058;-85
2021/12/15 05:50:20;;;;;;;111.60;47.35;;;10.40;99.90;;;;;;4956495;28;20674;-85
2021/12/15 05:52:46;;;;;;;111.15;46.10;;;10.30;99.90;;;;;;4941170;28;20050;-86
2021/12/15 05:55:12;;;;;;;109.65;47.78;;;10.40;99.90;;;;;;4940026;28;20411;-85
2021/12/15 05:57:38;;;;;;;109.68;45.78;;;10.40;99.90;;;;;;4956863;28;20101;-87
2021/12/15 06:00:09;;;;;;;104.00;44.75;;;10.40;99.90;;;;;;4940760;28;20055;-85
2021/12/15 06:02:35;;;;;;;113.20;46.45;;;10.40;99.90;;;;;;4956575;28;20059;-87
2021/12/15 06:05:00;;;;;;;119.50;47.70;;;10.50;99.90;;;;;;4940658;28;20061;-86
2021/12/15 06:07:26;;;;;;;112.68;46.40;;;10.90;99.90;;;;;;4971833;28;20051;-86
2021/12/15 06:09:52;;;;;;;107.35;45.75;;;10.40;99.90;;;;;;4956893;28;20054;-86
2021/12/15 06:12:17;;;;;;;112.10;45.88;;;10.40;99.90;;;;;;4955121;28;20046;-86
2021/12/15 06:14:43;;;;;;;108.03;46.22;;;10.40;99.90;;;;;;4972365;28;20159;-86
2021/12/15 06:17:10;;;;;;;114.60;47.20;;;10.40;99.90;;;;;;4939988;28;20053;-86
2021/12/15 06:19:36;;;;;;;113.38;48.55;;;10.30;99.90;;;;;;4956122;28;20059;-87
2021/12/15 06:22:03;;;;;;;116.32;47.45;;;10.40;99.90;;;;;;4963132;28;20053;-85
2021/12/15 06:24:28;;;;;;;117.32;47.67;;;10.30;99.90;;;;;;4974957;28;20051;-88
2021/12/15 06:26:57;;;;;;;100.88;46.80;;;10.40;99.90;;;;;;4975433;28;20042;-87
2021/12/15 06:29:22;;;;;;;103.47;45.92;;;10.30;99.90;;;;;;4991011;28;20057;-86
2021/12/15 06:31:48;;;;;;;103.50;46.63;;;10.30;99.90;;;;;;4974951;28;20062;-86
2021/12/15 06:34:15;;;;;;;104.07;45.25;;;10.40;99.90;;;;;;4969254;28;20058;-87
2021/12/15 06:36:41;;;;;;;106.88;45.67;;;10.40;99.90;;;;;;4971188;28;20050;-86
2021/12/15 06:39:07;;;;;;;100.68;45.83;;;10.40;99.90;;;;;;4972850;28;20061;-86
2021/12/15 06:41:32;;;;;;;107.35;45.67;;;10.30;99.90;;;;;;5004622;28;20063;-87
2021/12/15 06:43:59;;;;;;;104.70;46.88;;;10.30;99.90;;;;;;4972152;28;20059;-87
2021/12/15 06:59:41;;;;;;;109.07;48.58;;;10.30;99.90;;;;;;4972099;28;20066;-90
2021/12/15 07:02:07;;;;;;;103.63;46.63;;;10.30;99.90;;;;;;4971772;28;20050;-89
2021/12/15 07:04:33;;;;;;;100.75;47.58;;;10.30;99.90;;;;;;4971356;28;20483;-89
2021/12/15 07:06:59;;;;;;;107.28;47.00;;;10.30;99.90;;;;;;4971642;28;20607;-88
2021/12/15 07:09:24;;;;;;;106.50;46.38;;;10.30;99.90;;;;;;4938842;28;20058;-88
2021/12/15 07:11:52;;;;;;;102.20;45.83;;;10.30;99.90;;;;;;4955647;28;20046;-88
2021/12/15 07:14:18;;;;;;;107.53;46.53;;;10.30;99.90;;;;;;4970644;28;20153;-88
2021/12/15 07:16:46;;;;;;;104.22;48.90;;;10.30;99.90;;;;;;4971577;28;20077;-88
2021/12/15 07:19:29;;;;;;;101.15;47.33;;;10.30;99.90;;;;;;4955787;28;20074;-89
2021/12/15 07:22:16;;;;;;;105.47;45.90;;;10.30;99.90;;;;;;4971428;28;20058;-83
2021/12/15 07:24:42;;;;;;;100.95;45.78;;;10.30;99.90;;;;;;4971509;28;20054;-84
2021/12/15 07:27:07;;;;;;;110.53;47.08;;;10.30;99.90;;;;;;4971070;28;20047;-84
2021/12/15 07:29:33;;;;;;;102.18;46.03;;;10.30;99.90;;;;;;4954263;28;20063;-85
2021/12/15 07:31:59;;;;;;;99.15;45.88;;;10.40;99.90;;;;;;4971161;28;20133;-84
2021/12/15 07:34:25;;;;;;;102.20;45.22;;;10.40;99.90;;;;;;4954760;28;20073;-84
2021/12/15 07:36:51;;;;;;;95.70;42.83;;;10.40;99.90;;;;;;4971174;28;20065;-84
2021/12/15 07:39:16;;;;;;;94.63;45.05;;;10.40;99.90;;;;;;4972172;28;20121;-83
2021/12/15 07:41:51;;;;;;;96.30;44.85;;;10.30;99.90;;;;;;4970603;28;20142;-84
2021/12/15 07:44:17;;;;;;;87.78;41.70;;;10.30;99.90;;;;;;4970807;28;20046;-84
2021/12/15 07:46:43;;;;;;;91.50;41.72;;;10.30;99.90;;;;;;4938531;28;20081;-84
2021/12/15 07:49:09;;;;;;;90.20;43.53;;;10.40;99.90;;;;;;4986977;28;20043;-85
2021/12/15 07:51:35;;;;;;;93.95;44.00;;;10.30;99.90;;;;;;4970366;28;20063;-84
2021/12/15 07:54:00;;;;;;;101.43;44.42;;;10.30;99.90;;;;;;4986845;28;20082;-83
2021/12/15 07:56:26;;;;;;;86.18;42.13;;;10.30;99.90;;;;;;4969559;28;20062;-84
2021/12/15 07:58:52;;;;;;;84.88;42.72;;;10.30;99.90;;;;;;4970624;28;20133;-84
2021/12/15 08:01:19;;;;;;;88.43;42.75;;;10.30;99.90;;;;;;4970884;28;20055;-84
2021/12/15 08:03:50;;;;;;;87.22;41.58;;;10.30;99.90;;;;;;4969999;28;20535;-83
2021/12/15 08:06:16;;;;;;;89.22;42.50;;;10.40;99.90;;;;;;4955356;28;20050;-83
2021/12/15 08:08:42;;;;;;;82.20;41.63;;;10.30;99.90;;;;;;4970032;28;20055;-83
2021/12/15 08:11:07;;;;;;;83.47;40.75;;;10.30;99.90;;;;;;4970761;28;20042;-83
2021/12/15 08:13:34;;;;;;;72.75;36.50;;;10.40;99.90;;;;;;4970020;28;20061;-84
2021/12/15 08:16:00;;;;;;;79.65;38.25;;;10.50;99.90;;;;;;4954433;28;20085;-83
2021/12/15 08:18:26;;;;;;;81.25;38.28;;;10.50;99.90;;;;;;4969909;28;20483;-84
2021/12/15 08:20:52;;;;;;;75.07;36.00;;;10.40;99.90;;;;;;4970650;28;20149;-86
2021/12/15 08:23:18;;;;;;;75.80;36.75;;;10.50;99.90;;;;;;4970676;28;20055;-86
2021/12/15 08:25:43;;;;;;;76.90;37.08;;;10.50;99.90;;;;;;4976329;28;20109;-86
2021/12/15 08:28:09;;;;;;;82.88;36.97;;;10.50;99.90;;;;;;4980493;28;20043;-86
2021/12/15 08:30:35;;;;;;;75.10;35.80;;;10.60;99.90;;;;;;4969889;28;20054;-86
2021/12/15 08:33:03;;;;;;;73.00;36.30;;;10.60;99.90;;;;;;4970539;28;20065;-86
2021/12/15 08:35:31;;;;;;;80.20;36.28;;;10.50;99.90;;;;;;4970402;28;20051;-85
2021/12/15 08:37:57;;;;;;;68.78;34.72;;;10.50;99.90;;;;;;4989710;28;20050;-83
2021/12/15 08:40:24;;;;;;;67.28;34.05;;;10.60;99.90;;;;;;4974001;28;20054;-84
2021/12/15 08:42:50;;;;;;;73.90;35.05;;;10.60;99.90;;;;;;5006176;28;20479;-85
2021/12/15 08:45:15;;;;;;;71.55;35.92;;;10.60;99.90;;;;;;4975053;28;20100;-84
2021/12/15 08:47:41;;;;;;;75.15;34.33;;;10.60;99.90;;;;;;4973264;28;20089;-84
2021/12/15 08:50:09;;;;;;;71.00;33.65;;;10.60;99.90;;;;;;4973746;28;20383;-85
2021/12/15 08:52:35;;;;;;;68.47;34.47;;;10.60;99.90;;;;;;4973307;28;20093;-84
2021/12/15 08:55:02;;;;;;;64.40;33.83;;;10.60;99.90;;;;;;4957244;28;20062;-84
2021/12/15 08:57:27;;;;;;;63.08;31.80;;;10.70;99.90;;;;;;4976918;28;20047;-84
2021/12/15 08:59:53;;;;;;;68.00;33.65;;;10.60;99.90;;;;;;4993032;28;20081;-85
2021/12/15 09:02:18;;;;;;;67.78;34.60;;;10.70;99.90;;;;;;4977059;28;20089;-84
2021/12/15 09:04:44;;;;;;;65.22;33.80;;;10.60;99.90;;;;;;4992620;28;20046;-84
2021/12/15 09:07:10;;;;;;;67.80;34.80;;;10.60;99.90;;;;;;4994277;28;20152;-85
2021/12/15 09:09:35;;;;;;;66.70;34.22;;;10.50;99.90;;;;;;4992566;28;20054;-85
2021/12/15 09:12:02;;;;;;;68.35;34.08;;;10.70;99.90;;;;;;4992813;28;20060;-87
2021/12/15 09:14:28;;;;;;;69.57;34.95;;;10.60;99.90;;;;;;4976913;28;20060;-85
2021/12/15 09:16:54;;;;;;;64.10;34.67;;;10.70;99.90;;;;;;4992315;28;20125;-85
2021/12/15 09:19:20;;;;;;;63.25;31.48;;;10.60;99.90;;;;;;4976580;28;20053;-84
2021/12/15 09:21:46;;;;;;;60.45;32.78;;;10.70;99.90;;;;;;4992454;28;20042;-84
2021/12/15 09:24:13;;;;;;;60.80;33.60;;;10.80;99.90;;;;;;4976705;28;20129;-84
2021/12/15 09:26:39;;;;;;;62.35;31.73;;;10.70;99.90;;;;;;4992491;28;20522;-84
2021/12/15 09:29:05;;;;;;;64.18;34.05;;;10.70;99.90;;;;;;4993027;28;20133;-83
2021/12/15 09:31:31;;;;;;;61.17;31.77;;;10.80;99.90;;;;;;4992713;28;20085;-83
2021/12/15 09:33:57;;;;;;;57.72;30.25;;;10.80;99.90;;;;;;4976750;28;20050;-85
2021/12/15 09:36:23;;;;;;;60.03;30.83;;;10.80;99.90;;;;;;4992459;28;20046;-85
2021/12/15 09:38:53;;;;;;;61.53;33.70;;;10.80;99.90;;;;;;4991651;28;20046;-85
2021/12/15 09:41:18;;;;;;;60.97;31.75;;;10.90;99.90;;;;;;4976637;28;20068;-83
2021/12/15 09:43:45;;;;;;;62.60;31.55;;;10.80;99.90;;;;;;4975477;28;20046;-86
2021/12/15 09:46:26;;;;;;;53.13;29.42;;;10.90;99.90;;;;;;4992473;28;20109;-85
2021/12/15 10:10:42;;;;;;;57.00;30.13;;;11.10;99.90;;;;;;4975864;28;20050;-84
2021/12/15 10:18:18;;;;;;;46.28;26.08;;;11.00;99.90;;;;;;4978256;28;20050;-86
2021/12/15 10:20:44;;;;;;;46.40;26.30;;;11.10;99.90;;;;;;4991359;28;20153;-85
2021/12/15 10:23:13;;;;;;;49.85;26.15;;;11.00;99.90;;;;;;4991828;28;20133;-83
2021/12/15 10:25:45;;;;;;;54.78;26.25;;;11.10;99.90;;;;;;4975023;28;20133;-84
2021/12/15 10:28:16;;;;;;;47.85;25.65;;;11.10;99.90;;;;;;4991252;28;20129;-83
2021/12/15 10:30:45;;;;;;;42.85;25.02;;;11.10;99.90;;;;;;4974817;28;20546;-85
2021/12/15 10:33:16;;;;;;;41.78;24.50;;;11.10;99.90;;;;;;4974707;28;20062;-84
2021/12/15 10:35:44;;;;;;;45.35;25.02;;;11.00;99.90;;;;;;4974369;28;20101;-83
2021/12/15 10:38:18;;;;;;;46.17;26.25;;;11.10;99.90;;;;;;4974652;28;20455;-85
2021/12/15 10:40:58;;;;;;;46.00;26.13;;;11.10;99.90;;;;;;4990586;28;20046;-85
2021/12/15 10:43:26;;;;;;;47.40;26.15;;;11.20;99.90;;;;;;4974689;28;20050;-86
2021/12/15 10:45:58;;;;;;;41.17;23.15;;;11.10;99.90;;;;;;4973872;28;20050;-86
2021/12/15 10:48:35;;;;;;;43.72;24.65;;;11.20;99.90;;;;;;4973252;28;20058;-84
2021/12/15 10:51:04;;;;;;;43.85;22.55;;;11.40;99.90;;;;;;4966088;28;20706;-84
2021/12/15 10:53:35;;;;;;;45.83;24.35;;;11.30;99.90;;;;;;4939621;28;20065;-85
2021/12/15 10:56:08;;;;;;;42.60;24.30;;;11.20;99.90;;;;;;4954302;28;20149;-85
2021/12/15 10:58:42;;;;;;;38.13;22.30;;;11.20;99.90;;;;;;4939922;28;20062;-85
2021/12/15 11:01:38;;;;;;;41.65;22.00;;;11.30;99.90;;;;;;4971321;28;20133;-89
2021/12/15 11:04:24;;;;;;;40.17;23.13;;;11.30;99.90;;;;;;4954954;28;20066;-88
2021/12/15 11:07:21;;;;;;;35.63;21.38;;;11.30;99.90;;;;;;4941191;28;20051;-86
2021/12/15 11:10:19;;;;;;;40.90;22.02;;;11.30;99.90;;;;;;4973723;28;20392;-84
2021/12/15 11:12:46;;;;;;;36.72;21.90;;;11.40;99.90;;;;;;4951549;28;20062;-83
2021/12/15 11:15:27;;;;;;;37.67;21.50;;;11.30;99.90;;;;;;4971134;28;20054;-85
2021/12/15 11:17:59;;;;;;;41.55;21.88;;;11.30;99.90;;;;;;4970803;28;20055;-86
2021/12/15 11:20:28;;;;;;;36.58;20.92;;;11.30;99.90;;;;;;4971190;28;20055;-86
2021/12/15 11:22:54;;;;;;;34.55;19.70;;;11.50;99.90;;;;;;4971682;28;20057;-88
2021/12/15 11:25:46;;;;;;;39.00;20.50;;;11.50;99.90;;;;;;4971117;28;20050;-89
2021/12/15 11:28:31;;;;;;;32.50;19.17;;;11.50;99.90;;;;;;4970526;28;20054;-87
2021/12/15 11:31:13;;;;;;;34.67;19.80;;;11.60;99.90;;;;;;4969952;28;20129;-85
2021/12/15 11:33:56;;;;;;;36.10;20.20;;;11.50;99.90;;;;;;4956935;28;20050;-86
2021/12/15 11:36:32;;;;;;;35.08;20.23;;;11.60;99.90;;;;;;4971474;28;20054;-89
2021/12/15 11:39:07;;;;;;;33.95;18.70;;;11.50;99.90;;;;;;4938619;28;20646;-85
2021/12/15 11:41:36;;;;;;;31.63;18.55;;;11.50;99.90;;;;;;4971149;28;20062;-85
2021/12/15 11:44:03;;;;;;;33.03;18.15;;;11.50;99.90;;;;;;4923212;28;20054;-86
2021/12/15 11:46:41;;;;;;;35.08;18.83;;;11.60;99.90;;;;;;4954896;28;20475;-85
2021/12/15 11:49:19;;;;;;;33.90;17.23;;;11.50;99.90;;;;;;4970058;28;20047;-85
2021/12/15 11:51:46;;;;;;;28.23;17.65;;;11.40;99.90;;;;;;4939355;28;20059;-86
2021/12/15 11:54:24;;;;;;;35.85;17.83;;;11.40;99.90;;;;;;4954378;28;20087;-85
2021/12/15 11:56:59;;;;;;;28.27;16.60;;;11.60;99.90;;;;;;4955749;28;20142;-85
2021/12/15 11:59:30;;;;;;;29.13;15.95;;;11.50;99.90;;;;;;4970867;28;20039;-86
2021/12/15 12:02:05;;;;;;;24.85;13.55;;;11.50;99.90;;;;;;4955376;28;20054;-85
2021/12/15 12:04:34;;;;;;;25.90;14.88;;;11.50;99.90;;;;;;4970596;28;20114;-83
2021/12/15 12:07:21;;;;;;;28.20;15.27;;;11.40;99.90;;;;;;4970375;28;20094;-86
2021/12/15 12:10:10;;;;;;;26.70;15.50;;;11.40;99.90;;;;;;4970933;28;20047;-85
2021/12/15 12:12:40;;;;;;;26.90;13.38;;;11.40;99.90;;;;;;4957437;28;20164;-85
2021/12/15 12:15:08;;;;;;;22.63;11.93;;;11.40;99.90;;;;;;4958479;28;20182;-84
2021/12/15 12:17:37;;;;;;;23.23;12.38;;;11.40;99.90;;;;;;4974270;28;20059;-85
2021/12/15 12:20:11;;;;;;;22.50;12.13;;;11.30;99.90;;;;;;4957871;28;20062;-84
2021/12/15 12:22:37;;;;;;;23.77;12.13;;;11.50;99.90;;;;;;4942668;28;20058;-84
2021/12/15 12:25:08;;;;;;;22.38;12.73;;;11.40;99.90;;;;;;4974899;28;20059;-84
2021/12/15 12:27:34;;;;;;;25.88;13.07;;;11.50;99.90;;;;;;4958025;28;20050;-84
2021/12/15 12:30:00;;;;;;;20.40;10.52;;;11.50;99.90;;;;;;4973612;28;20053;-84
2021/12/15 12:32:26;;;;;;;18.83;11.77;;;11.60;99.90;;;;;;4974455;28;20047;-85
2021/12/15 12:34:53;;;;;;;26.65;13.30;;;11.50;99.90;;;;;;4974421;28;20098;-84
2021/12/15 12:37:18;;;;;;;30.15;14.68;;;11.30;99.90;;;;;;4941674;28;20051;-84
2021/12/15 12:39:48;;;;;;;26.55;14.48;;;11.40;99.90;;;;;;4942046;28;20134;-84
2021/12/15 12:42:35;;;;;;;19.23;12.30;;;11.40;99.90;;;;;;4957751;28;20051;-84
2021/12/15 12:45:37;;;;;;;22.77;12.98;;;11.40;99.90;;;;;;4973554;28;20126;-84
2021/12/15 12:48:35;;;;;;;22.70;12.30;;;11.30;99.90;;;;;;4927065;28;20070;-83
2021/12/15 12:59:43;;;;;;;15.65;9.15;;;11.30;99.90;;;;;;4972683;28;20063;-83
2021/12/15 13:05:06;;;;;;;20.23;9.13;;;11.50;99.90;;;;;;4974493;28;20058;-84
2021/12/15 13:07:48;;;;;;;15.98;8.35;;;11.50;99.90;;;;;;4973304;28;20050;-85
2021/12/15 13:10:14;;;;;;;17.17;8.25;;;11.40;99.90;;;;;;4973193;28;20050;-84
2021/12/15 13:12:47;;;;;;;16.52;8.32;;;11.30;99.90;;;;;;4973622;28;20109;-83
2021/12/15 13:15:17;;;;;;;15.93;6.93;;;11.20;99.90;;;;;;4973058;28;20069;-83
2021/12/15 13:17:59;;;;;;;14.93;7.43;;;11.20;99.90;;;;;;4956961;28;20423;-85
2021/12/15 13:20:27;;;;;;;11.93;7.22;;;11.20;99.90;;;;;;4957015;28;20117;-84
2021/12/15 13:28:48;;;;;;;13.63;6.15;;;11.00;99.90;;;;;;4979370;28;20496;-84
2021/12/15 13:31:15;;;;;;;12.43;5.47;;;10.90;99.90;;;;;;4986165;28;20160;-86
2021/12/15 13:33:44;;;;;;;13.77;5.07;;;10.90;99.90;;;;;;4976688;28;20514;-86
2021/12/15 13:36:22;;;;;;;8.63;4.97;;;10.80;99.90;;;;;;4960390;28;20113;-88
2021/12/15 13:38:53;;;;;;;9.30;4.32;;;10.70;99.90;;;;;;4973216;28;20369;-86
2021/12/15 13:42:14;;;;;;;13.95;5.82;;;10.70;99.90;;;;;;4956985;28;20086;-85
2021/12/15 13:44:47;;;;;;;10.27;4.10;;;10.70;99.90;;;;;;4974184;28;20054;-87
2021/12/15 13:47:17;;;;;;;14.23;5.20;;;10.70;99.90;;;;;;4956319;28;20053;-86
2021/12/15 13:49:50;;;;;;;14.23;4.53;;;10.70;99.90;;;;;;4973304;28;20051;-87
2021/12/15 13:52:38;;;;;;;8.00;4.53;;;10.70;99.90;;;;;;4972383;28;20125;-87
2021/12/15 13:55:26;;;;;;;11.30;4.15;;;10.60;99.90;;;;;;4972344;28;20067;-85
2021/12/15 13:57:55;;;;;;;12.35;4.05;;;10.50;99.90;;;;;;4972672;28;20063;-85
2021/12/15 14:00:48;;;;;;;10.50;4.45;;;10.40;99.90;;;;;;4972461;28;20055;-85
2021/12/15 14:03:44;;;;;;;10.20;4.32;;;10.40;99.90;;;;;;4973531;28;20480;-86
2021/12/15 14:06:18;;;;;;;15.57;5.68;;;10.30;99.90;;;;;;4944203;28;20138;-85
2021/12/15 14:08:47;;;;;;;13.10;5.30;;;10.20;99.90;;;;;;4957651;28;20047;-86